Time;durP1;ratioP1;P1;durP2;ratioP2;P2;SDS_P1;SDS_P2;PMS_P1;PMS_P2;Temp;Humidity;BMP_temperature;BMP_pressure;BME280_temperature;BME280_humidity;BME280_pressure;Samples;Min_cycle;Max_cycle;Signal;HPM_P1;HPM_P2
2023/10/24 00:01:21;;;;;;;2.70;2.13;;;;;13.20;99826.00;;;;5040753;28;20216;-71
2023/10/24 00:04:09;;;;;;;5.13;2.83;;;;;13.20;99831.00;;;;5023898;28;20233;-72
2023/10/24 00:06:56;;;;;;;6.33;2.60;;;;;13.20;99824.00;;;;5027435;28;20229;-71
2023/10/24 00:09:42;;;;;;;4.07;2.53;;;;;13.20;99835.00;;;;5043648;28;20304;-70
2023/10/24 00:12:29;;;;;;;4.00;2.40;;;;;13.20;99829.00;;;;5046869;28;20320;-70
2023/10/24 00:15:15;;;;;;;5.80;2.43;;;;;13.30;99828.00;;;;5021558;28;20742;-70
2023/10/24 00:18:02;;;;;;;5.47;2.90;;;;;13.30;99828.00;;;;5020189;28;20587;-68
2023/10/24 00:20:50;;;;;;;5.70;2.67;;;;;13.20;99820.00;;;;5022454;28;20244;-71
2023/10/24 00:23:36;;;;;;;3.50;2.70;;;;;13.20;99812.00;;;;5016793;28;20228;-72
2023/10/24 00:26:23;;;;;;;5.53;2.60;;;;;13.20;99805.00;;;;5024055;28;20598;-70
2023/10/24 00:29:09;;;;;;;3.83;2.60;;;;;13.30;99805.00;;;;5039533;28;20232;-73
2023/10/24 00:31:55;;;;;;;7.83;2.27;;;;;13.20;99812.00;;;;5043187;28;20241;-71
2023/10/24 00:34:42;;;;;;;4.97;2.53;;;;;13.30;99803.00;;;;5038370;28;20732;-71
2023/10/24 00:37:30;;;;;;;3.07;2.47;;;;;13.30;99802.00;;;;5027165;28;20264;-72
2023/10/24 00:40:18;;;;;;;5.47;2.60;;;;;13.20;99788.00;;;;5020487;28;20345;-71
2023/10/24 00:43:06;;;;;;;3.70;2.93;;;;;13.30;99798.00;;;;5046166;28;20351;-71
2023/10/24 00:45:52;;;;;;;3.90;2.60;;;;;13.30;99797.00;;;;5046717;28;20602;-72
2023/10/24 00:48:40;;;;;;;6.10;2.43;;;;;13.30;99795.00;;;;5024570;28;20257;-72
2023/10/24 00:51:26;;;;;;;4.90;2.70;;;;;13.30;99798.00;;;;5024325;28;20229;-71
2023/10/24 00:54:14;;;;;;;4.20;2.63;;;;;13.30;99797.00;;;;5017429;28;20982;-72
2023/10/24 00:57:02;;;;;;;2.60;2.10;;;;;13.30;99800.00;;;;5025697;28;20241;-71
2023/10/24 00:59:49;;;;;;;3.93;2.50;;;;;13.30;99792.00;;;;5021167;28;20253;-69
2023/10/24 01:02:36;;;;;;;6.07;2.63;;;;;13.30;99797.00;;;;5041192;28;20593;-72
2023/10/24 01:05:24;;;;;;;3.77;2.57;;;;;13.20;99789.00;;;;5023550;28;20847;-71
2023/10/24 01:08:10;;;;;;;6.87;2.80;;;;;13.20;99792.00;;;;5018183;28;20714;-69
2023/10/24 01:10:58;;;;;;;4.47;2.30;;;;;13.20;99795.00;;;;5042826;28;20244;-72
2023/10/24 01:13:44;;;;;;;3.37;2.60;;;;;13.20;99788.00;;;;5024993;28;20361;-71
2023/10/24 01:16:33;;;;;;;2.97;2.57;;;;;13.20;99794.00;;;;5040619;28;20255;-72
2023/10/24 01:19:20;;;;;;;3.07;2.20;;;;;13.20;99796.00;;;;5017379;28;20237;-72
2023/10/24 01:22:08;;;;;;;3.57;2.50;;;;;13.20;99788.00;;;;5022723;28;20228;-72
2023/10/24 01:24:55;;;;;;;3.63;2.63;;;;;13.20;99774.00;;;;5025973;28;20364;-72
2023/10/24 01:27:43;;;;;;;6.30;2.80;;;;;13.30;99755.00;;;;5017972;28;20253;-72
2023/10/24 01:30:29;;;;;;;3.27;2.30;;;;;13.30;99765.00;;;;5017687;28;20882;-71
2023/10/24 01:33:16;;;;;;;4.63;2.50;;;;;13.20;99773.00;;;;5017800;28;20229;-72
2023/10/24 01:36:02;;;;;;;2.67;2.03;;;;;13.20;99771.00;;;;5016169;28;20305;-72
2023/10/24 01:38:50;;;;;;;4.00;2.63;;;;;13.20;99785.00;;;;5015362;28;20242;-72
2023/10/24 01:41:36;;;;;;;3.40;2.40;;;;;13.20;99789.00;;;;5021872;28;20237;-71
2023/10/24 01:44:23;;;;;;;3.07;2.20;;;;;13.20;99776.00;;;;5020259;28;20740;-69
2023/10/24 01:47:09;;;;;;;5.83;2.80;;;;;13.20;99775.00;;;;5018234;28;20241;-72
2023/10/24 01:49:55;;;;;;;6.77;2.40;;;;;13.20;99772.00;;;;5022097;28;20237;-72
2023/10/24 01:52:43;;;;;;;3.03;2.47;;;;;13.20;99775.00;;;;5022181;28;20226;-71
2023/10/24 01:55:31;;;;;;;2.93;2.37;;;;;13.20;99775.00;;;;5019749;28;20731;-71
2023/10/24 01:58:17;;;;;;;2.90;2.17;;;;;13.20;99767.00;;;;5017228;28;20233;-70
2023/10/24 02:01:03;;;;;;;3.87;2.50;;;;;13.20;99761.00;;;;5008668;28;20267;-71
2023/10/24 02:03:50;;;;;;;4.43;2.60;;;;;13.20;99765.00;;;;5021561;28;20236;-71
2023/10/24 02:06:37;;;;;;;3.57;2.60;;;;;13.20;99762.00;;;;5043795;28;20308;-72
2023/10/24 02:09:23;;;;;;;6.03;2.80;;;;;13.20;99763.00;;;;5039795;28;20245;-73
2023/10/24 02:12:11;;;;;;;5.43;2.83;;;;;13.10;99753.00;;;;5019307;28;20230;-72
2023/10/24 02:14:58;;;;;;;4.80;2.70;;;;;13.20;99761.00;;;;5023348;28;20233;-69
2023/10/24 02:17:44;;;;;;;4.10;2.50;;;;;13.20;99759.00;;;;5020615;28;20327;-72
2023/10/24 02:20:31;;;;;;;4.87;2.57;;;;;13.20;99756.00;;;;5018660;28;20241;-73
2023/10/24 02:23:18;;;;;;;3.10;2.63;;;;;13.20;99752.00;;;;5017396;28;20225;-71
2023/10/24 02:26:05;;;;;;;6.30;2.97;;;;;13.20;99749.00;;;;5037945;28;20299;-72
2023/10/24 02:28:53;;;;;;;5.50;2.63;;;;;13.30;99760.00;;;;5037641;28;20591;-69
2023/10/24 02:31:39;;;;;;;9.43;2.80;;;;;13.30;99748.00;;;;5027115;28;20303;-72
2023/10/24 02:34:26;;;;;;;7.47;3.00;;;;;13.30;99750.00;;;;5023825;28;20238;-72
2023/10/24 02:37:13;;;;;;;6.73;2.77;;;;;13.30;99762.00;;;;5024635;28;20602;-73
2023/10/24 02:39:59;;;;;;;6.73;3.40;;;;;13.20;99750.00;;;;5014345;28;20802;-72
2023/10/24 02:42:45;;;;;;;7.47;2.97;;;;;13.30;99760.00;;;;5018855;28;20233;-72
2023/10/24 02:45:34;;;;;;;9.60;3.37;;;;;13.30;99755.00;;;;5017240;28;20608;-72
2023/10/24 02:48:20;;;;;;;4.40;2.70;;;;;13.30;99758.00;;;;5009913;28;20235;-71
2023/10/24 02:51:07;;;;;;;8.63;2.70;;;;;13.30;99760.00;;;;5023568;28;20233;-72
2023/10/24 02:53:53;;;;;;;8.67;3.40;;;;;13.30;99757.00;;;;5019977;28;20240;-73
2023/10/24 02:56:40;;;;;;;5.53;3.00;;;;;13.40;99758.00;;;;5019479;28;20229;-71
2023/10/24 02:59:26;;;;;;;10.33;3.27;;;;;13.40;99768.00;;;;5013004;28;20245;-73
2023/10/24 03:02:14;;;;;;;5.27;2.97;;;;;13.40;99761.00;;;;5042043;28;20232;-72
2023/10/24 03:05:00;;;;;;;4.87;2.93;;;;;13.40;99784.00;;;;5021905;28;20241;-70
2023/10/24 03:07:47;;;;;;;8.20;3.30;;;;;13.50;99781.00;;;;5023167;28;20360;-72
2023/10/24 03:10:39;;;;;;;4.77;2.70;;;;;13.50;99785.00;;;;5022034;28;20237;-72
2023/10/24 03:13:25;;;;;;;5.30;3.07;;;;;13.60;99778.00;;;;5020168;28;20233;-72
2023/10/24 03:16:12;;;;;;;4.60;2.60;;;;;13.50;99792.00;;;;5016321;28;20245;-72
2023/10/24 03:19:00;;;;;;;4.63;2.60;;;;;13.60;99794.00;;;;5019315;28;20249;-69
2023/10/24 03:21:46;;;;;;;3.87;2.57;;;;;13.50;99806.00;;;;5018260;28;20275;-72
2023/10/24 03:24:33;;;;;;;8.13;3.13;;;;;13.60;99798.00;;;;5008497;28;20999;-72
2023/10/24 03:27:19;;;;;;;3.53;3.00;;;;;13.60;99785.00;;;;5017374;28;20232;-71
2023/10/24 03:30:07;;;;;;;4.03;3.07;;;;;13.50;99782.00;;;;5020627;28;20232;-73
2023/10/24 03:32:54;;;;;;;5.30;3.13;;;;;13.60;99791.00;;;;5021478;28;20229;-71
2023/10/24 03:35:42;;;;;;;6.27;2.90;;;;;13.60;99779.00;;;;5020211;28;20236;-73
2023/10/24 03:38:29;;;;;;;5.23;3.33;;;;;13.60;99754.00;;;;5036898;28;20295;-71
2023/10/24 03:41:16;;;;;;;8.10;3.47;;;;;13.70;99755.00;;;;5026362;28;20988;-72
2023/10/24 03:44:03;;;;;;;4.60;3.03;;;;;13.60;99760.00;;;;5023880;28;20291;-72
2023/10/24 03:46:49;;;;;;;5.03;3.53;;;;;13.70;99776.00;;;;5019193;28;20238;-74
2023/10/24 03:49:35;;;;;;;4.10;3.13;;;;;13.70;99775.00;;;;5021708;28;20295;-72
2023/10/24 03:52:23;;;;;;;5.43;3.17;;;;;13.70;99778.00;;;;5026212;28;20256;-71
2023/10/24 03:55:11;;;;;;;5.00;3.53;;;;;13.70;99790.00;;;;5021038;28;20237;-72
2023/10/24 03:57:57;;;;;;;7.83;3.80;;;;;13.60;99802.00;;;;5025391;28;20245;-72
2023/10/24 04:00:44;;;;;;;6.43;3.80;;;;;13.60;99797.00;;;;5020439;28;20241;-72
2023/10/24 04:03:30;;;;;;;5.63;3.80;;;;;13.50;99796.00;;;;5024911;28;20767;-72
2023/10/24 04:06:17;;;;;;;6.50;3.80;;;;;13.60;99787.00;;;;5027115;28;20225;-72
2023/10/24 04:09:05;;;;;;;4.90;3.57;;;;;13.60;99787.00;;;;5045367;28;20375;-71
2023/10/24 04:11:52;;;;;;;4.27;3.03;;;;;13.60;99775.00;;;;5043680;28;24937;-73
2023/10/24 04:14:38;;;;;;;5.30;3.57;;;;;13.50;99767.00;;;;5038337;28;20232;-72
2023/10/24 04:17:25;;;;;;;4.00;3.20;;;;;13.60;99779.00;;;;5037668;28;20232;-72
2023/10/24 04:20:12;;;;;;;4.53;3.23;;;;;13.50;99770.00;;;;5042243;28;20287;-73
2023/10/24 04:23:03;;;;;;;6.63;3.57;;;;;13.50;99755.00;;;;5044337;28;20237;-72
2023/10/24 04:25:51;;;;;;;3.90;3.00;;;;;13.50;99766.00;;;;5025277;28;20364;-71
2023/10/24 04:28:38;;;;;;;4.70;3.43;;;;;13.50;99770.00;;;;5040048;28;20252;-71
2023/10/24 04:31:28;;;;;;;5.47;3.33;;;;;13.50;99771.00;;;;5042991;28;20706;-73
2023/10/24 04:34:15;;;;;;;4.20;3.00;;;;;13.50;99761.00;;;;5027713;28;20266;-73
2023/10/24 04:37:02;;;;;;;4.67;2.80;;;;;13.50;99774.00;;;;5019833;28;20709;-72
2023/10/24 04:39:49;;;;;;;3.73;2.90;;;;;13.50;99764.00;;;;5017670;28;20242;-73
2023/10/24 04:42:36;;;;;;;3.73;2.60;;;;;13.60;99750.00;;;;5011092;28;20909;-71
2023/10/24 04:45:22;;;;;;;4.40;2.90;;;;;13.50;99760.00;;;;5019787;28;20260;-72
2023/10/24 04:48:09;;;;;;;5.50;2.63;;;;;13.50;99760.00;;;;5018678;28;20364;-72
2023/10/24 04:50:55;;;;;;;2.60;2.33;;;;;13.50;99749.00;;;;5025951;28;20272;-73
2023/10/24 04:53:42;;;;;;;4.83;2.40;;;;;13.50;99747.00;;;;5019431;28;20234;-73
2023/10/24 04:56:28;;;;;;;3.77;2.20;;;;;13.50;99754.00;;;;5032539;28;20232;-72
2023/10/24 04:59:16;;;;;;;2.10;1.90;;;;;13.50;99756.00;;;;5038467;28;20324;-74
2023/10/24 05:02:03;;;;;;;4.67;2.20;;;;;13.50;99757.00;;;;5024402;28;20237;-72
2023/10/24 05:04:50;;;;;;;4.23;2.40;;;;;13.60;99758.00;;;;5026364;28;20741;-72
2023/10/24 05:07:37;;;;;;;3.17;2.27;;;;;13.50;99759.00;;;;5042875;28;20380;-69
2023/10/24 05:10:23;;;;;;;3.77;2.33;;;;;13.50;99751.00;;;;5041498;28;20225;-72
2023/10/24 05:13:09;;;;;;;5.40;2.37;;;;;13.50;99744.00;;;;5022304;28;20769;-72
2023/10/24 05:15:58;;;;;;;6.20;2.57;;;;;13.40;99763.00;;;;5022516;28;20232;-72
2023/10/24 05:18:44;;;;;;;4.73;2.17;;;;;13.50;99755.00;;;;5020910;28;20265;-72
2023/10/24 05:21:30;;;;;;;4.87;2.53;;;;;13.50;99745.00;;;;5018109;28;20228;-71
2023/10/24 05:24:17;;;;;;;3.50;2.23;;;;;13.50;99746.00;;;;5015659;28;20228;-72
2023/10/24 05:27:04;;;;;;;4.03;2.53;;;;;13.40;99754.00;;;;5038191;28;20628;-71
2023/10/24 05:29:50;;;;;;;4.80;2.90;;;;;13.40;99752.00;;;;5038583;28;20618;-74
2023/10/24 05:32:38;;;;;;;5.17;2.80;;;;;13.40;99747.00;;;;5013623;28;20231;-72
2023/10/24 05:35:25;;;;;;;5.67;2.50;;;;;13.40;99739.00;;;;5019093;28;20780;-73
2023/10/24 05:38:12;;;;;;;2.83;2.30;;;;;13.50;99737.00;;;;5023217;28;20300;-74
2023/10/24 05:40:59;;;;;;;7.57;3.03;;;;;13.40;99739.00;;;;5024056;28;20241;-73
2023/10/24 05:43:45;;;;;;;3.20;2.33;;;;;13.40;99738.00;;;;5018851;28;20225;-74
2023/10/24 05:46:32;;;;;;;2.73;2.33;;;;;13.50;99732.00;;;;5023878;28;20256;-73
2023/10/24 05:49:20;;;;;;;4.20;2.43;;;;;13.50;99730.00;;;;5043602;28;20280;-75
2023/10/24 05:52:06;;;;;;;2.67;2.43;;;;;13.50;99740.00;;;;5027055;28;20241;-73
2023/10/24 05:54:53;;;;;;;6.63;2.40;;;;;13.50;99742.00;;;;5008700;28;20269;-74
2023/10/24 05:57:39;;;;;;;3.90;2.20;;;;;13.50;99739.00;;;;5016884;28;20261;-73
2023/10/24 06:00:25;;;;;;;4.43;2.40;;;;;13.50;99745.00;;;;5019045;28;20242;-72
2023/10/24 06:03:12;;;;;;;2.83;2.20;;;;;13.50;99741.00;;;;5036681;28;20228;-74
2023/10/24 06:06:00;;;;;;;3.53;2.30;;;;;13.50;99743.00;;;;5041424;28;20256;-74
2023/10/24 06:08:47;;;;;;;4.77;2.17;;;;;13.50;99740.00;;;;5016673;28;20229;-73
2023/10/24 06:11:33;;;;;;;2.67;2.20;;;;;13.40;99766.00;;;;5021923;28;20428;-74
2023/10/24 06:14:19;;;;;;;4.27;1.93;;;;;13.50;99782.00;;;;5018258;28;20234;-73
2023/10/24 06:17:06;;;;;;;4.63;2.50;;;;;13.50;99759.00;;;;5018508;28;20233;-74
2023/10/24 06:19:53;;;;;;;3.23;2.67;;;;;13.60;99765.00;;;;5011339;28;20253;-73
2023/10/24 06:22:41;;;;;;;3.77;2.53;;;;;13.60;99757.00;;;;5012063;28;20274;-72
2023/10/24 06:25:27;;;;;;;3.47;2.60;;;;;13.60;99765.00;;;;5012161;28;20249;-72
2023/10/24 06:28:13;;;;;;;3.80;2.97;;;;;13.60;99763.00;;;;5013227;28;20226;-70
2023/10/24 06:31:04;;;;;;;3.57;2.60;;;;;13.60;99754.00;;;;5012119;28;20354;-73
2023/10/24 06:33:51;;;;;;;4.37;2.50;;;;;13.50;99745.00;;;;5017065;28;20455;-72
2023/10/24 06:36:37;;;;;;;6.53;3.00;;;;;13.60;99737.00;;;;5010750;28;20306;-73
2023/10/24 06:39:26;;;;;;;3.90;2.50;;;;;13.50;99748.00;;;;5012882;28;20237;-74
2023/10/24 06:42:14;;;;;;;6.07;2.47;;;;;13.50;99749.00;;;;5015261;28;20723;-73
2023/10/24 06:45:00;;;;;;;3.73;2.57;;;;;13.50;99752.00;;;;5013648;28;20720;-73
2023/10/24 06:47:47;;;;;;;4.10;2.33;;;;;13.50;99741.00;;;;5013910;28;20762;-70
2023/10/24 06:50:33;;;;;;;3.27;2.57;;;;;13.40;99749.00;;;;5017467;28;20237;-73
2023/10/24 06:53:19;;;;;;;3.40;2.27;;;;;13.50;99742.00;;;;5013932;28;20329;-74
2023/10/24 06:56:08;;;;;;;2.90;2.40;;;;;13.50;99748.00;;;;5020893;28;20238;-73
2023/10/24 06:58:54;;;;;;;3.53;2.40;;;;;13.60;99755.00;;;;5033181;28;20769;-72
2023/10/24 07:01:41;;;;;;;3.77;2.30;;;;;13.50;99747.00;;;;5029202;28;20291;-71
2023/10/24 07:04:27;;;;;;;4.17;2.60;;;;;13.60;99751.00;;;;5033403;28;20321;-72
2023/10/24 07:07:14;;;;;;;3.60;2.47;;;;;13.60;99754.00;;;;5019503;28;20236;-74
2023/10/24 07:10:00;;;;;;;2.83;2.23;;;;;13.60;99757.00;;;;5016430;28;20821;-73
2023/10/24 07:12:48;;;;;;;3.60;2.50;;;;;13.50;99761.00;;;;5014813;28;20283;-73
2023/10/24 07:15:34;;;;;;;3.27;2.70;;;;;13.50;99766.00;;;;5037285;28;20323;-72
2023/10/24 07:18:21;;;;;;;6.60;2.43;;;;;13.60;99755.00;;;;5037085;28;20299;-73
2023/10/24 07:21:08;;;;;;;3.23;2.33;;;;;13.60;99743.00;;;;5037787;28;20914;-73
2023/10/24 07:23:56;;;;;;;4.77;2.40;;;;;13.50;99759.00;;;;5019857;28;20297;-73
2023/10/24 07:26:42;;;;;;;3.80;2.77;;;;;13.60;99750.00;;;;5018876;28;20240;-73
2023/10/24 07:29:30;;;;;;;3.97;2.87;;;;;13.60;99759.00;;;;5020918;28;20230;-72
2023/10/24 07:32:17;;;;;;;4.27;2.60;;;;;13.50;99755.00;;;;5014295;28;20361;-73
2023/10/24 07:35:04;;;;;;;9.43;3.20;;;;;13.50;99750.00;;;;5014840;28;20230;-72
2023/10/24 07:37:51;;;;;;;4.57;2.83;;;;;13.60;99746.00;;;;5016309;28;20240;-73
2023/10/24 07:40:38;;;;;;;5.13;3.07;;;;;13.60;99741.00;;;;5015090;28;20233;-72
2023/10/24 07:43:24;;;;;;;3.73;2.63;;;;;13.60;99745.00;;;;5019743;28;20649;-72
2023/10/24 07:46:12;;;;;;;5.07;3.07;;;;;13.60;99750.00;;;;5019701;28;20245;-72
2023/10/24 07:48:58;;;;;;;3.67;2.77;;;;;13.50;99749.00;;;;5009570;28;20729;-74
2023/10/24 07:51:44;;;;;;;4.63;3.00;;;;;13.60;99755.00;;;;5004609;28;20237;-74
2023/10/24 07:54:31;;;;;;;5.40;3.07;;;;;13.60;99750.00;;;;5012491;28;20297;-73
2023/10/24 07:57:17;;;;;;;5.63;2.87;;;;;13.60;99738.00;;;;5014883;28;20803;-74
2023/10/24 08:00:07;;;;;;;4.10;2.87;;;;;13.50;99739.00;;;;5020695;28;20236;-74
2023/10/24 08:02:54;;;;;;;3.73;2.93;;;;;13.50;99742.00;;;;5014271;28;20243;-75
2023/10/24 08:05:45;;;;;;;5.03;2.33;;;;;13.40;99738.00;;;;5023240;28;20229;-73
2023/10/24 08:08:31;;;;;;;2.93;2.60;;;;;13.40;99739.00;;;;5018619;28;20401;-74
2023/10/24 08:11:18;;;;;;;3.20;2.70;;;;;13.40;99740.00;;;;5013842;28;20230;-74
2023/10/24 08:14:05;;;;;;;3.60;2.73;;;;;13.50;99729.00;;;;5014829;28;20226;-73
2023/10/24 08:16:52;;;;;;;4.60;2.60;;;;;13.50;99733.00;;;;5014022;28;20242;-73
2023/10/24 08:19:40;;;;;;;3.27;2.83;;;;;13.60;99744.00;;;;5012931;28;20249;-72
2023/10/24 08:22:26;;;;;;;4.63;2.60;;;;;13.60;99760.00;;;;5013676;28;20321;-74
2023/10/24 08:25:13;;;;;;;3.97;2.80;;;;;13.70;99765.00;;;;5021947;28;20726;-74
2023/10/24 08:28:00;;;;;;;4.00;2.60;;;;;13.80;99766.00;;;;5016729;28;20264;-75
2023/10/24 08:30:46;;;;;;;2.60;2.20;;;;;13.90;99780.00;;;;5019389;28;20226;-73
2023/10/24 08:33:33;;;;;;;3.40;2.43;;;;;13.90;99780.00;;;;5011949;28;20230;-72
2023/10/24 08:36:21;;;;;;;7.13;3.00;;;;;13.90;99772.00;;;;5014637;28;20237;-73
2023/10/24 08:39:07;;;;;;;5.20;2.97;;;;;13.90;99776.00;;;;5014723;28;20612;-73
2023/10/24 08:41:57;;;;;;;4.80;2.73;;;;;13.90;99782.00;;;;5023810;28;20245;-73
2023/10/24 08:44:45;;;;;;;5.03;2.50;;;;;13.90;99779.00;;;;5016135;28;20354;-73
2023/10/24 08:47:32;;;;;;;3.40;2.53;;;;;13.90;99783.00;;;;5018027;28;20224;-71
2023/10/24 08:50:19;;;;;;;6.17;2.80;;;;;14.00;99783.00;;;;5020116;28;20233;-73
2023/10/24 08:53:07;;;;;;;3.90;2.53;;;;;14.00;99788.00;;;;5012490;28;20640;-74
2023/10/24 08:55:57;;;;;;;3.77;2.53;;;;;13.80;99779.00;;;;5019119;28;20234;-74
2023/10/24 08:58:46;;;;;;;3.53;2.40;;;;;13.90;99779.00;;;;5017940;28;20231;-73
2023/10/24 09:01:33;;;;;;;7.27;2.63;;;;;14.00;99777.00;;;;5015962;28;20409;-70
2023/10/24 09:04:20;;;;;;;2.20;2.00;;;;;13.90;99790.00;;;;5013668;28;20299;-72
2023/10/24 09:07:09;;;;;;;3.23;2.20;;;;;14.00;99799.00;;;;5012919;28;20229;-73
2023/10/24 09:09:57;;;;;;;4.17;2.40;;;;;13.90;99796.00;;;;5021460;28;20251;-73
2023/10/24 09:12:43;;;;;;;3.50;2.40;;;;;13.90;99793.00;;;;5042051;28;20401;-72
2023/10/24 09:15:33;;;;;;;3.70;2.17;;;;;13.90;99781.00;;;;5037929;28;20947;-73
2023/10/24 09:18:19;;;;;;;4.07;2.20;;;;;13.80;99782.00;;;;5017503;28;20237;-73
2023/10/24 09:21:07;;;;;;;2.77;2.27;;;;;13.70;99794.00;;;;5043065;28;20256;-73
2023/10/24 09:23:54;;;;;;;3.50;2.10;;;;;13.80;99778.00;;;;5025330;28;21509;-73
2023/10/24 09:26:50;;;;;;;3.17;2.33;;;;;13.90;99782.00;;;;5025249;28;20625;-72
2023/10/24 09:29:37;;;;;;;2.87;2.10;;;;;13.90;99780.00;;;;5019452;28;20245;-74
2023/10/24 09:32:23;;;;;;;4.17;2.10;;;;;13.90;99781.00;;;;5020649;28;20233;-73
2023/10/24 09:35:10;;;;;;;5.77;1.87;;;;;14.00;99785.00;;;;5014236;28;20369;-74
2023/10/24 09:37:56;;;;;;;2.10;1.90;;;;;14.00;99779.00;;;;5021462;28;20247;-73
2023/10/24 09:40:43;;;;;;;5.73;2.23;;;;;14.10;99790.00;;;;5019387;28;20283;-71
2023/10/24 09:43:33;;;;;;;3.10;1.97;;;;;14.20;99792.00;;;;5039128;28;20269;-73
2023/10/24 09:46:20;;;;;;;4.40;2.13;;;;;14.30;99787.00;;;;5040469;28;20225;-72
2023/10/24 09:49:08;;;;;;;5.77;1.80;;;;;14.30;99786.00;;;;5024267;28;20352;-73
2023/10/24 09:51:55;;;;;;;4.63;1.90;;;;;14.50;99782.00;;;;5027556;28;20429;-72
2023/10/24 09:54:42;;;;;;;2.37;1.70;;;;;14.50;99773.00;;;;5022032;28;20239;-73
2023/10/24 09:57:33;;;;;;;2.63;1.80;;;;;14.60;99768.00;;;;5014589;28;20246;-73
2023/10/24 10:00:22;;;;;;;3.50;1.83;;;;;14.80;99746.00;;;;5013471;28;20337;-72
2023/10/24 10:03:10;;;;;;;5.40;1.73;;;;;14.70;99763.00;;;;5012231;28;20227;-72
2023/10/24 10:05:59;;;;;;;3.60;1.87;;;;;14.80;99760.00;;;;5018425;28;20229;-72
2023/10/24 10:08:45;;;;;;;2.77;1.80;;;;;14.80;99756.00;;;;5020198;28;20371;-72
2023/10/24 10:11:33;;;;;;;2.10;1.83;;;;;14.70;99750.00;;;;5020052;28;20234;-72
2023/10/24 10:14:32;;;;;;;2.77;1.67;;;;;14.80;99761.00;;;;5014844;28;20237;-74
2023/10/24 10:17:26;;;;;;;4.57;1.80;;;;;14.90;99761.00;;;;5008588;28;20617;-72
2023/10/24 10:20:32;;;;;;;3.00;1.70;;;;;15.00;99759.00;;;;5013521;28;20221;-74
2023/10/24 10:23:47;;;;;;;2.13;1.70;;;;;15.20;99752.00;;;;5014070;28;20227;-70
2023/10/24 10:26:52;;;;;;;1.77;1.37;;;;;15.30;99739.00;;;;5016053;28;20271;-74
2023/10/24 10:29:50;;;;;;;3.17;1.70;;;;;15.40;99741.00;;;;5023689;28;20279;-72
2023/10/24 10:32:46;;;;;;;2.30;1.60;;;;;15.50;99731.00;;;;5021284;28;20603;-72
2023/10/24 10:35:56;;;;;;;3.50;1.90;;;;;15.60;99723.00;;;;5024838;28;20372;-72
2023/10/24 10:38:45;;;;;;;4.00;1.70;;;;;15.70;99718.00;;;;5017166;28;20230;-72
2023/10/24 10:41:44;;;;;;;2.37;1.60;;;;;16.00;99713.00;;;;5021016;28;20749;-72
2023/10/24 10:44:41;;;;;;;3.70;1.60;;;;;16.30;99709.00;;;;5020033;28;20217;-71
2023/10/24 10:47:30;;;;;;;2.97;1.80;;;;;16.70;99710.00;;;;5018265;28;20243;-72
2023/10/24 10:50:22;;;;;;;2.23;1.90;;;;;16.80;99698.00;;;;5015639;28;20311;-73
2023/10/24 10:53:22;;;;;;;2.43;1.90;;;;;16.80;99701.00;;;;5015757;28;20698;-68
2023/10/24 10:56:24;;;;;;;2.43;1.80;;;;;16.80;99690.00;;;;5019028;28;20599;-72
2023/10/24 10:59:31;;;;;;;1.50;1.40;;;;;16.50;99693.00;;;;5015451;28;20233;-72
2023/10/24 11:02:34;;;;;;;2.60;1.70;;;;;16.40;99700.00;;;;5019018;28;20247;-73
2023/10/24 11:05:49;;;;;;;1.70;1.60;;;;;16.40;99697.00;;;;5020910;28;20253;-72
2023/10/24 11:08:36;;;;;;;2.00;1.80;;;;;16.50;99699.00;;;;5021833;28;20233;-74
2023/10/24 11:11:27;;;;;;;2.57;1.63;;;;;16.60;99699.00;;;;5017497;28;20739;-73
2023/10/24 11:14:15;;;;;;;4.17;1.97;;;;;16.70;99708.00;;;;5016814;28;20210;-74
2023/10/24 11:17:02;;;;;;;2.20;2.00;;;;;16.80;99716.00;;;;5020621;28;20213;-73
2023/10/24 11:19:49;;;;;;;2.33;2.00;;;;;16.70;99706.00;;;;5021843;28;20209;-73
2023/10/24 11:22:37;;;;;;;2.40;1.87;;;;;16.60;99687.00;;;;5019360;28;20229;-72
2023/10/24 11:25:23;;;;;;;2.20;2.00;;;;;16.40;99687.00;;;;5010370;28;20214;-72
2023/10/24 11:28:10;;;;;;;2.20;1.90;;;;;16.30;99688.00;;;;5018704;28;20429;-72
2023/10/24 11:30:56;;;;;;;2.10;1.90;;;;;16.30;99685.00;;;;5020152;28;20785;-73
2023/10/24 11:33:44;;;;;;;2.17;1.90;;;;;16.50;99681.00;;;;5020672;28;20213;-73
2023/10/24 11:36:31;;;;;;;3.33;2.00;;;;;16.70;99684.00;;;;5021788;28;20213;-72
2023/10/24 11:39:18;;;;;;;2.67;1.97;;;;;16.60;99687.00;;;;5024580;28;20225;-74
2023/10/24 11:42:05;;;;;;;2.90;1.90;;;;;16.60;99681.00;;;;5020375;28;20218;-73
2023/10/24 11:44:52;;;;;;;2.50;1.70;;;;;16.30;99687.00;;;;5022086;28;20218;-74
2023/10/24 11:47:39;;;;;;;2.73;1.80;;;;;16.20;99675.00;;;;5022584;28;20361;-73
2023/10/24 11:50:43;;;;;;;2.87;1.80;;;;;16.20;99683.00;;;;5013651;28;20642;-74
2023/10/24 11:53:30;;;;;;;1.80;1.70;;;;;16.30;99679.00;;;;5017477;28;20698;-73
2023/10/24 11:56:18;;;;;;;2.33;2.07;;;;;16.20;99671.00;;;;5015975;28;20568;-75
2023/10/24 11:59:05;;;;;;;3.17;2.50;;;;;16.20;99674.00;;;;5022898;28;20589;-72
2023/10/24 12:01:52;;;;;;;3.23;2.50;;;;;16.30;99673.00;;;;5025714;28;20214;-72
2023/10/24 12:04:38;;;;;;;2.67;2.33;;;;;16.30;99661.00;;;;5030791;28;20252;-71
2023/10/24 12:07:26;;;;;;;2.83;2.27;;;;;16.30;99673.00;;;;5024210;28;20368;-72
2023/10/24 12:10:14;;;;;;;2.13;1.93;;;;;16.30;99665.00;;;;5023090;28;20213;-73
2023/10/24 12:13:04;;;;;;;2.60;2.20;;;;;16.20;99664.00;;;;5022328;28;20250;-72
2023/10/24 12:15:51;;;;;;;3.23;1.97;;;;;16.20;99658.00;;;;5024501;28;20233;-71
2023/10/24 12:18:38;;;;;;;2.63;1.93;;;;;16.10;99667.00;;;;5020668;28;20221;-72
2023/10/24 12:21:24;;;;;;;4.60;2.60;;;;;16.00;99652.00;;;;5020491;28;20292;-72
2023/10/24 12:24:12;;;;;;;2.00;1.80;;;;;16.10;99675.00;;;;5025212;28;20633;-72
2023/10/24 12:26:58;;;;;;;4.23;1.90;;;;;16.10;99672.00;;;;5020726;28;20754;-71
2023/10/24 12:29:46;;;;;;;5.27;2.10;;;;;16.10;99675.00;;;;5024402;28;20244;-71
2023/10/24 12:32:33;;;;;;;2.47;2.00;;;;;16.20;99673.00;;;;5023377;28;20233;-72
2023/10/24 12:35:19;;;;;;;2.10;1.90;;;;;16.20;99681.00;;;;5020079;28;20576;-73
2023/10/24 12:38:05;;;;;;;2.77;1.73;;;;;16.20;99684.00;;;;5020655;28;20322;-73
2023/10/24 12:40:52;;;;;;;2.27;2.00;;;;;16.20;99679.00;;;;5022859;28;20805;-71
2023/10/24 12:43:38;;;;;;;3.00;2.40;;;;;16.00;99682.00;;;;5022912;28;20245;-73
2023/10/24 12:46:26;;;;;;;3.13;2.10;;;;;15.80;99685.00;;;;5020644;28;20696;-71
2023/10/24 12:49:12;;;;;;;2.10;1.90;;;;;15.80;99685.00;;;;5021814;28;20674;-71
2023/10/24 12:51:58;;;;;;;2.33;1.93;;;;;15.70;99674.00;;;;5013292;28;22121;-72
2023/10/24 12:54:44;;;;;;;2.70;1.77;;;;;15.70;99671.00;;;;5020390;28;20742;-72
2023/10/24 12:57:31;;;;;;;3.87;2.10;;;;;15.50;99686.00;;;;5019015;28;20229;-72
2023/10/24 13:00:18;;;;;;;3.57;1.90;;;;;15.50;99678.00;;;;5020845;28;20206;-72
2023/10/24 13:03:06;;;;;;;2.27;2.07;;;;;15.50;99673.00;;;;5018136;28;20244;-72
2023/10/24 13:06:04;;;;;;;3.53;2.03;;;;;15.40;99695.00;;;;5016112;28;20299;-71
2023/10/24 13:08:50;;;;;;;3.80;2.20;;;;;15.40;99709.00;;;;5020851;28;20259;-72
2023/10/24 13:11:41;;;;;;;3.80;1.83;;;;;15.40;99695.00;;;;5021459;28;20212;-72
2023/10/24 13:14:27;;;;;;;2.30;1.80;;;;;15.40;99713.00;;;;5019436;28;20209;-73
2023/10/24 13:17:14;;;;;;;2.27;1.90;;;;;15.20;99707.00;;;;5017172;28;20362;-73
2023/10/24 13:20:03;;;;;;;3.37;2.07;;;;;15.00;99714.00;;;;5021171;28;20348;-73
2023/10/24 13:22:51;;;;;;;2.73;2.30;;;;;14.90;99710.00;;;;5008220;28;20236;-72
2023/10/24 13:25:38;;;;;;;3.07;2.20;;;;;15.00;99706.00;;;;5015395;28;20230;-72
2023/10/24 13:28:25;;;;;;;3.47;2.17;;;;;15.10;99717.00;;;;5018594;28;20601;-73
2023/10/24 13:31:11;;;;;;;3.57;1.63;;;;;15.10;99705.00;;;;5024080;28;20238;-71
2023/10/24 13:34:02;;;;;;;1.97;1.77;;;;;15.10;99701.00;;;;5016113;28;20367;-71
2023/10/24 13:36:53;;;;;;;2.47;1.80;;;;;15.10;99698.00;;;;5011170;28;20319;-71
2023/10/24 13:39:39;;;;;;;2.77;1.70;;;;;15.00;99697.00;;;;5019861;28;20238;-72
2023/10/24 13:42:26;;;;;;;2.23;1.80;;;;;14.90;99701.00;;;;5014950;28;20296;-74
2023/10/24 13:45:12;;;;;;;2.03;1.80;;;;;14.80;99707.00;;;;5011706;28;20367;-74
2023/10/24 13:47:59;;;;;;;2.20;1.90;;;;;14.80;99705.00;;;;5015102;28;20371;-71
2023/10/24 13:50:46;;;;;;;1.70;1.60;;;;;14.70;99696.00;;;;5019258;28;20236;-72
2023/10/24 13:53:34;;;;;;;2.00;1.80;;;;;14.60;99695.00;;;;5015079;28;20755;-72
2023/10/24 13:56:20;;;;;;;3.40;1.83;;;;;14.60;99689.00;;;;5018164;28;20243;-72
2023/10/24 13:59:07;;;;;;;2.67;2.20;;;;;14.50;99674.00;;;;5019470;28;20233;-73
2023/10/24 14:01:53;;;;;;;2.30;1.87;;;;;14.40;99704.00;;;;5021473;28;20311;-72